Time;durP1;ratioP1;P1;durP2;ratioP2;P2;SDS_P1;SDS_P2;PMS_P1;PMS_P2;Temp;Humidity;BMP_temperature;BMP_pressure;BME280_temperature;BME280_humidity;BME280_pressure;Samples;Min_cycle;Max_cycle;Signal;HPM_P1;HPM_P2
2022/10/15 00:01:34;;;;;;;12.25;8.25;;;11.80;99.90;;;;;;6142725;29;20590;-67
2022/10/15 00:04:39;;;;;;;8.80;7.68;;;11.80;99.90;;;;;;6142353;29;20315;-65
2022/10/15 00:07:46;;;;;;;10.98;7.55;;;11.80;99.90;;;;;;6142883;29;20267;-67
2022/10/15 00:10:51;;;;;;;11.00;7.90;;;11.80;99.90;;;;;;6141745;29;20299;-67
2022/10/15 00:13:58;;;;;;;8.02;6.97;;;11.90;99.90;;;;;;6142543;29;20291;-66
2022/10/15 00:17:02;;;;;;;7.22;6.55;;;11.90;99.90;;;;;;6143009;29;20267;-67
2022/10/15 00:20:10;;;;;;;14.13;6.82;;;11.80;99.90;;;;;;6142245;29;20298;-66
2022/10/15 00:23:17;;;;;;;10.68;7.30;;;11.80;99.90;;;;;;6142558;29;20414;-66
2022/10/15 00:26:25;;;;;;;7.72;6.95;;;11.80;99.90;;;;;;6142125;29;20299;-66
2022/10/15 00:29:30;;;;;;;9.52;6.40;;;11.80;99.90;;;;;;6141835;29;20400;-66
2022/10/15 00:32:35;;;;;;;7.53;6.60;;;11.80;99.90;;;;;;6142089;29;20272;-66
2022/10/15 00:35:42;;;;;;;8.07;6.55;;;11.70;99.90;;;;;;6124991;29;20298;-67
2022/10/15 00:38:49;;;;;;;8.80;7.18;;;11.80;99.90;;;;;;6142262;29;20271;-66
2022/10/15 00:41:54;;;;;;;7.40;6.63;;;11.80;99.90;;;;;;6123832;29;20453;-66
2022/10/15 00:45:00;;;;;;;9.43;6.70;;;11.80;99.90;;;;;;6124635;29;20291;-67
2022/10/15 00:48:07;;;;;;;9.93;6.88;;;11.80;99.90;;;;;;6141830;29;20275;-67
2022/10/15 00:51:12;;;;;;;6.63;6.13;;;11.80;99.90;;;;;;6124578;29;20567;-67
2022/10/15 00:54:18;;;;;;;11.30;7.07;;;11.80;99.90;;;;;;6119145;29;20295;-67
2022/10/15 00:57:24;;;;;;;8.00;5.97;;;11.70;99.90;;;;;;6101602;29;20276;-67
2022/10/15 01:00:30;;;;;;;7.63;6.63;;;11.70;99.90;;;;;;6117967;29;20344;-67
2022/10/15 01:03:36;;;;;;;6.35;5.85;;;11.70;99.90;;;;;;6117155;29;20280;-67
2022/10/15 01:06:41;;;;;;;6.78;6.10;;;11.70;99.90;;;;;;6116636;29;20308;-65
2022/10/15 01:09:47;;;;;;;6.93;6.22;;;11.70;99.90;;;;;;6110146;29;20308;-66
2022/10/15 01:13:03;;;;;;;6.95;5.80;;;11.70;99.90;;;;;;6117487;29;20280;-66
2022/10/15 01:16:16;;;;;;;6.70;6.05;;;11.70;99.90;;;;;;6117244;29;20295;-67
2022/10/15 01:19:37;;;;;;;6.05;5.43;;;11.70;99.90;;;;;;6100429;29;20299;-67
2022/10/15 01:22:55;;;;;;;5.90;5.30;;;11.70;99.90;;;;;;6117924;29;20275;-67
2022/10/15 01:26:21;;;;;;;5.68;5.13;;;11.60;99.90;;;;;;6116928;29;20300;-68
2022/10/15 01:29:48;;;;;;;6.20;5.60;;;11.60;99.90;;;;;;6100600;29;20300;-67
2022/10/15 01:33:15;;;;;;;5.50;5.15;;;11.60;99.90;;;;;;6100598;29;20280;-67
2022/10/15 01:36:26;;;;;;;5.35;4.88;;;11.50;99.90;;;;;;6100216;29;20304;-67
2022/10/15 01:39:34;;;;;;;5.38;4.97;;;11.50;99.90;;;;;;6100157;29;20292;-67
2022/10/15 01:42:48;;;;;;;7.03;5.25;;;11.50;99.90;;;;;;6117241;29;20272;-67
2022/10/15 01:45:58;;;;;;;5.65;5.13;;;11.50;99.90;;;;;;6099602;29;20315;-67
2022/10/15 01:49:25;;;;;;;8.15;4.93;;;11.40;99.90;;;;;;6116029;29;20295;-67
2022/10/15 01:52:34;;;;;;;5.07;4.80;;;11.30;99.90;;;;;;6123921;29;20276;-67
2022/10/15 01:55:42;;;;;;;7.50;5.07;;;11.40;99.90;;;;;;6140002;29;20575;-66
2022/10/15 01:58:49;;;;;;;6.07;5.60;;;11.40;99.90;;;;;;6140343;29;20291;-66
2022/10/15 02:01:55;;;;;;;7.10;5.03;;;11.30;99.90;;;;;;6122611;29;20663;-67
2022/10/15 02:05:05;;;;;;;5.95;5.22;;;11.40;99.90;;;;;;6122945;29;20331;-67
2022/10/15 02:08:19;;;;;;;5.40;4.90;;;11.30;99.90;;;;;;6124053;29;20271;-66
2022/10/15 02:11:27;;;;;;;4.70;4.50;;;11.30;99.90;;;;;;6138949;29;20299;-67
2022/10/15 02:14:38;;;;;;;5.03;4.57;;;11.20;99.90;;;;;;6123066;29;20295;-67
2022/10/15 02:17:49;;;;;;;5.15;4.75;;;11.20;99.90;;;;;;6140302;29;20550;-66
2022/10/15 02:20:58;;;;;;;5.03;4.68;;;11.20;99.90;;;;;;6138559;29;20311;-66
2022/10/15 02:24:08;;;;;;;6.70;4.95;;;11.30;99.90;;;;;;6138819;29;20287;-67
2022/10/15 02:27:15;;;;;;;5.93;5.03;;;11.20;99.90;;;;;;6140176;29;20445;-66
2022/10/15 02:30:21;;;;;;;5.45;5.05;;;11.20;99.90;;;;;;6139450;29;20322;-66
2022/10/15 02:33:26;;;;;;;4.97;4.60;;;11.10;99.90;;;;;;6123350;29;20280;-66
2022/10/15 02:36:32;;;;;;;5.20;4.78;;;11.10;99.90;;;;;;6139553;29;20306;-67
2022/10/15 02:39:44;;;;;;;7.05;4.63;;;11.20;99.90;;;;;;6122526;29;20306;-67
2022/10/15 02:42:50;;;;;;;5.07;4.63;;;11.10;99.90;;;;;;6139048;29;20271;-66
2022/10/15 02:45:55;;;;;;;4.75;4.30;;;11.10;99.90;;;;;;6122656;29;20303;-66
2022/10/15 02:49:00;;;;;;;4.45;4.25;;;11.20;99.90;;;;;;6122591;29;20280;-66
2022/10/15 02:52:07;;;;;;;5.00;4.70;;;11.10;99.90;;;;;;6118218;29;20264;-66
2022/10/15 02:55:12;;;;;;;5.18;4.88;;;11.10;99.90;;;;;;6098929;29;20303;-66
2022/10/15 02:58:17;;;;;;;5.28;4.75;;;11.10;99.90;;;;;;6099537;29;20271;-66
2022/10/15 03:01:23;;;;;;;4.68;4.28;;;11.20;99.90;;;;;;6098477;29;20595;-66
2022/10/15 03:04:28;;;;;;;6.63;4.30;;;11.20;99.90;;;;;;6125788;29;20352;-66
2022/10/15 03:07:36;;;;;;;5.30;4.85;;;11.30;99.90;;;;;;6135511;29;20323;-66
2022/10/15 03:10:41;;;;;;;4.93;4.53;;;11.20;99.90;;;;;;6121145;29;20264;-66
2022/10/15 03:13:46;;;;;;;4.78;4.40;;;11.10;99.90;;;;;;6113022;29;20295;-66
2022/10/15 03:16:52;;;;;;;4.88;4.47;;;11.10;99.90;;;;;;6103562;29;20493;-67
2022/10/15 03:19:56;;;;;;;4.43;4.13;;;11.10;99.90;;;;;;6114879;29;20304;-66
2022/10/15 03:23:02;;;;;;;6.53;4.95;;;11.10;99.90;;;;;;6143380;29;20291;-65
2022/10/15 03:26:10;;;;;;;4.60;4.35;;;11.10;99.90;;;;;;6127351;29;20275;-66
2022/10/15 03:29:16;;;;;;;4.55;4.25;;;11.20;99.90;;;;;;6143144;29;20294;-66
2022/10/15 03:32:28;;;;;;;4.28;3.97;;;11.20;99.90;;;;;;6141953;29;20290;-66
2022/10/15 03:35:38;;;;;;;5.25;4.47;;;11.20;99.90;;;;;;6125431;29;20283;-66
2022/10/15 03:38:46;;;;;;;5.80;4.30;;;11.30;99.90;;;;;;6102524;29;20300;-66
2022/10/15 03:41:53;;;;;;;4.85;3.78;;;11.30;99.90;;;;;;6120113;29;20275;-66
2022/10/15 03:45:07;;;;;;;4.38;3.88;;;11.30;99.90;;;;;;6118381;29;20603;-66
2022/10/15 03:48:16;;;;;;;5.53;4.00;;;11.30;99.90;;;;;;6102821;29;20304;-66
2022/10/15 03:51:21;;;;;;;5.97;4.20;;;11.30;99.90;;;;;;6119874;29;20276;-66
2022/10/15 03:54:39;;;;;;;4.88;4.40;;;11.30;99.90;;;;;;6117752;29;20620;-66
2022/10/15 03:57:44;;;;;;;3.88;3.60;;;11.30;99.90;;;;;;6102124;29;20386;-66
2022/10/15 04:00:49;;;;;;;7.43;4.40;;;11.30;99.90;;;;;;6118196;29;20271;-66
2022/10/15 04:03:54;;;;;;;8.23;4.55;;;11.40;99.90;;;;;;6118659;29;20296;-66
2022/10/15 04:07:02;;;;;;;5.07;4.75;;;11.40;99.90;;;;;;6102529;29;20595;-67
2022/10/15 04:10:11;;;;;;;5.70;4.60;;;11.40;99.90;;;;;;6121042;29;20298;-65
2022/10/15 04:13:16;;;;;;;4.63;4.30;;;11.40;99.90;;;;;;6125537;29;20295;-66
2022/10/15 04:16:21;;;;;;;7.22;4.75;;;11.50;99.90;;;;;;6124731;29;20287;-66
2022/10/15 04:19:26;;;;;;;5.13;4.65;;;11.50;99.90;;;;;;6125575;29;20298;-66
2022/10/15 04:22:41;;;;;;;4.45;4.25;;;11.50;99.90;;;;;;6125771;29;20303;-66
2022/10/15 04:25:47;;;;;;;4.75;4.45;;;11.50;99.90;;;;;;6125938;29;20278;-66
2022/10/15 04:28:52;;;;;;;4.90;4.50;;;11.50;99.90;;;;;;6125249;29;20602;-66
2022/10/15 04:31:59;;;;;;;4.88;4.57;;;11.50;99.90;;;;;;6126015;29;20276;-66
2022/10/15 04:35:06;;;;;;;6.45;4.72;;;11.50;99.90;;;;;;6125271;29;20315;-66
2022/10/15 04:38:27;;;;;;;5.28;4.70;;;11.60;99.90;;;;;;6125066;29;20299;-67
2022/10/15 04:41:40;;;;;;;5.70;5.20;;;11.50;99.90;;;;;;6125444;29;20295;-67
2022/10/15 04:44:49;;;;;;;8.50;5.43;;;11.50;99.90;;;;;;6125003;29;20291;-67
2022/10/15 04:47:54;;;;;;;7.13;5.88;;;11.50;99.90;;;;;;6124841;29;20291;-67
2022/10/15 04:51:05;;;;;;;8.85;6.57;;;11.50;99.90;;;;;;6125407;29;20337;-67
2022/10/15 04:54:21;;;;;;;11.18;7.35;;;11.50;99.90;;;;;;6124698;29;20294;-67
2022/10/15 04:57:54;;;;;;;9.32;7.15;;;11.60;99.90;;;;;;6139229;29;20295;-67
2022/10/15 05:01:10;;;;;;;15.05;7.72;;;11.60;99.90;;;;;;6124796;29;20275;-67
2022/10/15 05:04:38;;;;;;;12.27;8.98;;;11.60;99.90;;;;;;6140809;29;20311;-67
2022/10/15 05:07:43;;;;;;;12.50;8.73;;;11.70;99.90;;;;;;6141393;29;20308;-67
2022/10/15 05:10:48;;;;;;;12.65;9.43;;;11.70;99.90;;;;;;6115832;29;20267;-67
2022/10/15 05:13:57;;;;;;;17.15;9.60;;;11.80;99.90;;;;;;6100722;29;20300;-66
2022/10/15 05:17:03;;;;;;;14.88;10.55;;;11.80;99.90;;;;;;6117689;29;20299;-67
2022/10/15 05:20:13;;;;;;;18.30;10.60;;;11.80;99.90;;;;;;6099901;29;20276;-67
2022/10/15 05:23:19;;;;;;;16.52;10.15;;;11.80;99.90;;;;;;6100559;29;20295;-67
2022/10/15 05:26:36;;;;;;;15.68;10.13;;;11.80;99.90;;;;;;6116262;29;20276;-67
2022/10/15 05:29:42;;;;;;;16.02;11.20;;;11.90;99.90;;;;;;6115859;29;20295;-67
2022/10/15 05:32:52;;;;;;;16.92;10.95;;;11.90;99.90;;;;;;6116679;29;20295;-67
2022/10/15 05:35:58;;;;;;;21.27;11.55;;;11.90;99.90;;;;;;6116465;29;20292;-67
2022/10/15 05:39:05;;;;;;;20.45;13.13;;;12.00;99.90;;;;;;6117030;29;20485;-67
2022/10/15 05:42:16;;;;;;;22.52;12.57;;;12.00;99.90;;;;;;6099992;29;20276;-67
2022/10/15 05:45:30;;;;;;;25.17;14.55;;;12.00;99.90;;;;;;6100876;29;20280;-67
2022/10/15 05:48:40;;;;;;;27.55;14.27;;;12.10;99.90;;;;;;6100126;29;20308;-67
2022/10/15 05:51:45;;;;;;;24.42;15.05;;;12.10;99.90;;;;;;6117487;29;20275;-67
2022/10/15 05:55:01;;;;;;;26.77;15.57;;;12.10;99.90;;;;;;6099817;29;20303;-67
2022/10/15 05:58:06;;;;;;;30.98;16.10;;;12.20;99.90;;;;;;6084304;29;20236;-68
2022/10/15 06:01:13;;;;;;;26.60;15.77;;;12.20;99.90;;;;;;6116761;29;20575;-67
2022/10/15 06:04:18;;;;;;;26.90;15.65;;;12.20;99.90;;;;;;6116625;29;20292;-67
2022/10/15 06:07:24;;;;;;;29.10;16.77;;;12.20;99.90;;;;;;6116628;29;20276;-67
2022/10/15 06:10:29;;;;;;;29.63;17.20;;;12.20;99.90;;;;;;6123288;29;20263;-67
2022/10/15 06:13:34;;;;;;;32.28;17.67;;;12.30;99.90;;;;;;6139668;29;20315;-67
2022/10/15 06:16:41;;;;;;;29.10;16.48;;;12.30;99.90;;;;;;6140414;29;20294;-67
2022/10/15 06:19:45;;;;;;;35.00;17.67;;;12.40;99.90;;;;;;6140202;29;20291;-67
2022/10/15 06:22:50;;;;;;;33.65;16.42;;;12.40;99.90;;;;;;6139798;29;20295;-67
2022/10/15 06:25:55;;;;;;;34.28;18.10;;;12.50;99.90;;;;;;6139990;29;20274;-66
2022/10/15 06:29:00;;;;;;;30.70;17.02;;;12.50;99.90;;;;;;6139602;29;20303;-67
2022/10/15 06:32:09;;;;;;;29.58;17.25;;;12.50;99.90;;;;;;6140512;29;20279;-67
2022/10/15 06:35:21;;;;;;;32.55;17.83;;;12.60;99.90;;;;;;6139303;29;20275;-67
2022/10/15 06:38:26;;;;;;;30.55;18.02;;;12.60;99.90;;;;;;6140783;29;20590;-67
2022/10/15 06:41:31;;;;;;;34.53;17.55;;;12.70;99.90;;;;;;6144627;29;20276;-67
2022/10/15 06:44:36;;;;;;;32.88;16.83;;;12.70;99.90;;;;;;6144318;29;20470;-67
2022/10/15 06:47:42;;;;;;;33.53;16.65;;;12.70;99.90;;;;;;6144032;29;20310;-67
2022/10/15 06:50:47;;;;;;;29.65;16.13;;;12.70;99.90;;;;;;6145098;29;20458;-67
2022/10/15 06:53:52;;;;;;;29.35;16.58;;;12.80;99.90;;;;;;6144232;29;20299;-67
2022/10/15 06:56:57;;;;;;;34.72;16.88;;;12.80;99.90;;;;;;6144596;29;20290;-67
2022/10/15 07:00:02;;;;;;;28.27;15.95;;;12.80;99.90;;;;;;6143979;29;20298;-67
2022/10/15 07:03:09;;;;;;;31.15;16.83;;;12.80;99.90;;;;;;6144192;29;20299;-68
2022/10/15 07:06:15;;;;;;;31.67;16.33;;;12.80;99.90;;;;;;6144547;29;20323;-67
2022/10/15 07:09:20;;;;;;;28.65;15.50;;;12.80;99.90;;;;;;6143957;29;20299;-67
2022/10/15 07:12:25;;;;;;;27.90;15.90;;;12.80;99.90;;;;;;6121671;29;20284;-67
2022/10/15 07:15:30;;;;;;;25.98;16.83;;;12.90;99.90;;;;;;6120834;29;20532;-67
2022/10/15 07:18:38;;;;;;;29.05;16.58;;;12.90;99.90;;;;;;6120209;29;20323;-67
2022/10/15 07:21:43;;;;;;;29.90;17.27;;;13.00;99.90;;;;;;6113318;29;20272;-67
2022/10/15 07:24:47;;;;;;;35.53;18.00;;;13.00;99.90;;;;;;6120323;29;20304;-67
2022/10/15 07:27:54;;;;;;;34.42;16.95;;;13.10;99.90;;;;;;6120004;29;20299;-67
2022/10/15 07:31:02;;;;;;;32.53;18.05;;;13.20;99.90;;;;;;6120092;29;20275;-67
2022/10/15 07:34:08;;;;;;;31.67;17.17;;;13.20;99.90;;;;;;6103232;29;20304;-67
2022/10/15 07:37:13;;;;;;;32.85;18.05;;;13.20;99.90;;;;;;6119164;29;20272;-68
2022/10/15 07:40:18;;;;;;;33.28;19.27;;;13.20;99.90;;;;;;6101641;29;20276;-67
2022/10/15 07:43:23;;;;;;;30.63;18.00;;;13.20;99.90;;;;;;6095895;29;20297;-68
2022/10/15 07:46:28;;;;;;;31.67;18.42;;;13.30;99.90;;;;;;6096474;29;20272;-67
2022/10/15 07:49:34;;;;;;;33.05;18.83;;;13.30;99.90;;;;;;6095167;29;20304;-67
2022/10/15 07:52:39;;;;;;;30.50;17.60;;;13.30;99.90;;;;;;6095944;29;20296;-68
2022/10/15 07:55:44;;;;;;;28.70;18.35;;;13.30;99.90;;;;;;6096682;29;20268;-67
2022/10/15 07:58:51;;;;;;;25.90;16.65;;;13.40;99.90;;;;;;6095847;29;20300;-67
2022/10/15 08:01:55;;;;;;;29.75;17.17;;;13.50;99.90;;;;;;6095938;29;20439;-67
2022/10/15 08:05:02;;;;;;;30.00;16.98;;;13.50;99.90;;;;;;6095575;29;20617;-67
2022/10/15 08:08:07;;;;;;;29.08;16.13;;;13.50;99.90;;;;;;6095178;29;20323;-66
2022/10/15 08:11:14;;;;;;;28.10;16.75;;;13.50;99.90;;;;;;6108142;29;20272;-66
2022/10/15 08:14:19;;;;;;;26.25;16.25;;;13.60;99.90;;;;;;6119077;29;20308;-66
2022/10/15 08:17:24;;;;;;;24.00;15.73;;;13.60;99.90;;;;;;6118756;29;20560;-66
2022/10/15 08:20:30;;;;;;;28.48;16.27;;;13.60;99.90;;;;;;6119033;29;20280;-67
2022/10/15 08:23:36;;;;;;;31.98;15.77;;;13.60;99.90;;;;;;6117885;29;20300;-67
2022/10/15 08:26:41;;;;;;;27.38;15.80;;;13.70;99.90;;;;;;6119235;29;20272;-67
2022/10/15 08:29:46;;;;;;;25.50;16.60;;;13.60;99.90;;;;;;6118479;29;20303;-67
2022/10/15 08:32:51;;;;;;;25.20;16.38;;;13.60;99.90;;;;;;6118094;29;20312;-67
2022/10/15 08:35:58;;;;;;;29.00;16.88;;;13.60;99.90;;;;;;6118692;29;20396;-67
2022/10/15 08:39:05;;;;;;;29.15;16.95;;;13.70;99.90;;;;;;6118372;29;20303;-68
2022/10/15 08:42:19;;;;;;;31.77;18.15;;;13.70;99.90;;;;;;6118313;29;20272;-68
2022/10/15 08:45:28;;;;;;;31.85;17.08;;;13.80;99.90;;;;;;6118582;29;20271;-68
2022/10/15 08:48:36;;;;;;;27.20;17.23;;;13.80;99.90;;;;;;6117836;29;20308;-67
2022/10/15 08:51:48;;;;;;;25.20;16.58;;;13.90;99.90;;;;;;6118652;29;20272;-67
2022/10/15 08:54:56;;;;;;;24.88;17.15;;;13.80;99.90;;;;;;6117744;29;20300;-66
2022/10/15 08:58:06;;;;;;;31.42;16.60;;;13.80;99.90;;;;;;6117296;29;20296;-66
2022/10/15 09:01:22;;;;;;;28.15;17.33;;;13.90;99.90;;;;;;6117506;29;20449;-67
2022/10/15 09:04:32;;;;;;;30.15;16.10;;;13.90;99.90;;;;;;6117551;29;20304;-66
2022/10/15 09:07:44;;;;;;;24.25;16.13;;;13.90;99.90;;;;;;6094656;29;20296;-68
2022/10/15 09:10:59;;;;;;;27.83;16.80;;;14.00;99.90;;;;;;6104142;29;20313;-68
2022/10/15 09:14:08;;;;;;;30.48;17.55;;;14.00;99.90;;;;;;6117500;29;20296;-67
2022/10/15 09:17:20;;;;;;;27.17;16.63;;;14.00;99.90;;;;;;6117453;29;20580;-68
2022/10/15 09:20:30;;;;;;;31.98;18.38;;;14.00;99.90;;;;;;6118169;29;20603;-67
2022/10/15 09:23:37;;;;;;;34.00;18.30;;;14.00;99.90;;;;;;6116901;29;20304;-67
2022/10/15 09:26:58;;;;;;;31.48;17.27;;;14.10;99.90;;;;;;6117858;29;20271;-67
2022/10/15 09:30:12;;;;;;;27.33;16.73;;;14.10;99.90;;;;;;6100280;29;20299;-67
2022/10/15 09:33:26;;;;;;;24.48;16.02;;;14.10;99.90;;;;;;6117094;29;20300;-66
2022/10/15 09:36:40;;;;;;;28.58;15.93;;;14.00;99.90;;;;;;6117085;29;20272;-68
2022/10/15 09:40:32;;;;;;;28.33;16.02;;;14.10;99.90;;;;;;6116892;29;20299;-67
2022/10/15 09:43:40;;;;;;;24.50;15.63;;;14.10;99.90;;;;;;6075318;29;20603;-66
2022/10/15 09:46:46;;;;;;;21.27;15.35;;;14.10;99.90;;;;;;6117547;29;20272;-67
2022/10/15 09:49:51;;;;;;;26.20;15.57;;;14.20;99.90;;;;;;6116622;29;20331;-67
2022/10/15 09:53:08;;;;;;;28.52;15.10;;;14.20;99.90;;;;;;6116751;29;20478;-66
2022/10/15 09:56:18;;;;;;;25.83;15.48;;;14.30;99.90;;;;;;6117213;29;20279;-66
2022/10/15 09:59:25;;;;;;;24.42;14.60;;;14.40;99.90;;;;;;6116747;29;20311;-66
2022/10/15 10:02:30;;;;;;;24.58;14.75;;;14.40;99.90;;;;;;6116252;29;20280;-66
2022/10/15 10:05:38;;;;;;;25.70;15.23;;;14.40;99.90;;;;;;6124861;29;20307;-67
2022/10/15 10:08:52;;;;;;;23.75;14.80;;;14.40;99.90;;;;;;6132582;29;20299;-67
2022/10/15 10:12:02;;;;;;;23.05;15.48;;;14.40;99.90;;;;;;6122401;29;20268;-67
2022/10/15 10:15:27;;;;;;;27.50;15.60;;;14.40;99.90;;;;;;6115898;29;20315;-67
2022/10/15 10:18:32;;;;;;;26.33;15.60;;;14.50;99.90;;;;;;6115981;29;20300;-67
2022/10/15 10:21:40;;;;;;;30.67;16.58;;;14.40;99.90;;;;;;6116606;29;20410;-67
2022/10/15 10:24:46;;;;;;;29.88;17.13;;;14.40;99.90;;;;;;6116094;29;20299;-67
2022/10/15 10:27:52;;;;;;;22.85;16.85;;;14.40;99.90;;;;;;6116480;29;20300;-67
2022/10/15 10:31:04;;;;;;;23.88;16.85;;;14.40;99.90;;;;;;6116161;29;20279;-67
2022/10/15 10:34:14;;;;;;;28.50;18.17;;;14.40;99.90;;;;;;6116561;29;20579;-68
2022/10/15 10:37:23;;;;;;;33.70;17.83;;;14.40;99.90;;;;;;6116169;29;20279;-67
2022/10/15 10:40:30;;;;;;;33.10;18.52;;;14.40;99.90;;;;;;6116652;29;20293;-66
2022/10/15 10:43:53;;;;;;;32.83;18.75;;;14.40;99.90;;;;;;6116092;29;20301;-67
2022/10/15 10:47:12;;;;;;;32.30;18.50;;;14.30;99.90;;;;;;6116792;29;20277;-66
2022/10/15 10:50:30;;;;;;;31.42;19.20;;;14.40;99.90;;;;;;6115451;29;20280;-66
2022/10/15 10:53:47;;;;;;;29.98;19.00;;;14.40;99.90;;;;;;6115640;29;20296;-67
2022/10/15 10:56:52;;;;;;;31.65;18.92;;;14.30;99.90;;;;;;6116135;29;20567;-67
2022/10/15 10:59:59;;;;;;;31.30;17.90;;;14.40;99.90;;;;;;6116410;29;20307;-67
2022/10/15 11:03:04;;;;;;;32.28;19.13;;;14.40;99.90;;;;;;6115432;29;20311;-66
2022/10/15 11:06:51;;;;;;;30.63;19.05;;;14.40;99.90;;;;;;6116518;29;20316;-67
2022/10/15 11:10:03;;;;;;;30.55;18.65;;;14.50;99.90;;;;;;6112157;29;20312;-67
2022/10/15 11:13:30;;;;;;;29.35;18.35;;;14.50;99.90;;;;;;6139343;29;20315;-66
2022/10/15 11:16:47;;;;;;;37.58;19.25;;;14.50;99.90;;;;;;6139698;29;20564;-66
2022/10/15 11:19:57;;;;;;;31.70;19.52;;;14.50;99.90;;;;;;6139316;29;20485;-67
2022/10/15 11:23:36;;;;;;;36.75;19.42;;;14.50;99.90;;;;;;6139101;29;20482;-67
2022/10/15 11:27:03;;;;;;;33.53;19.90;;;14.40;99.90;;;;;;6143716;29;20284;-67
2022/10/15 11:30:32;;;;;;;35.63;20.02;;;14.40;99.90;;;;;;6142842;29;20275;-66
2022/10/15 11:33:51;;;;;;;36.50;20.33;;;14.40;99.90;;;;;;6143654;29;20295;-66
2022/10/15 11:37:13;;;;;;;32.75;19.60;;;14.40;99.90;;;;;;6137647;29;20275;-66
2022/10/15 11:40:24;;;;;;;36.67;20.13;;;14.40;99.90;;;;;;6142970;29;20303;-67
2022/10/15 11:43:47;;;;;;;38.38;21.17;;;14.40;99.90;;;;;;6142924;29;20295;-66
2022/10/15 11:47:07;;;;;;;38.28;20.42;;;14.40;99.90;;;;;;6143445;29;20271;-68
2022/10/15 11:50:28;;;;;;;40.50;21.98;;;14.40;99.90;;;;;;6142295;29;20275;-66
2022/10/15 11:54:05;;;;;;;37.80;20.52;;;14.50;99.90;;;;;;6142644;29;20303;-66
2022/10/15 11:57:14;;;;;;;39.08;22.63;;;14.50;99.90;;;;;;6138894;29;20560;-67
2022/10/15 12:00:31;;;;;;;36.60;20.83;;;14.50;99.90;;;;;;6142820;29;20287;-66
2022/10/15 12:03:44;;;;;;;41.00;22.05;;;14.50;99.90;;;;;;6142463;29;20307;-66
2022/10/15 12:06:53;;;;;;;36.25;21.35;;;14.40;99.90;;;;;;6142877;29;20303;-67
2022/10/15 12:10:06;;;;;;;35.15;20.08;;;14.50;99.90;;;;;;6139987;29;20498;-67
2022/10/15 12:13:19;;;;;;;31.60;20.35;;;14.50;99.90;;;;;;6119044;29;20487;-66
2022/10/15 12:16:31;;;;;;;35.42;20.98;;;14.50;99.90;;;;;;6119699;29;20564;-67
2022/10/15 12:19:40;;;;;;;30.42;19.67;;;14.50;99.90;;;;;;6117679;29;20494;-67
2022/10/15 12:22:59;;;;;;;35.35;19.85;;;14.50;99.90;;;;;;6118481;29;20303;-67
2022/10/15 12:26:27;;;;;;;32.10;20.38;;;14.40;99.90;;;;;;6119159;29;20276;-67
2022/10/15 12:29:32;;;;;;;33.55;20.92;;;14.50;99.90;;;;;;6118569;29;20299;-67
2022/10/15 12:32:40;;;;;;;34.65;21.02;;;14.40;99.90;;;;;;6118698;29;20394;-67
2022/10/15 12:35:55;;;;;;;32.00;21.02;;;14.40;99.90;;;;;;6118014;29;20568;-67
2022/10/15 12:39:04;;;;;;;40.80;20.80;;;14.40;99.90;;;;;;6117963;29;20295;-67
2022/10/15 12:42:28;;;;;;;34.75;19.40;;;14.40;99.90;;;;;;6118069;29;20288;-67
2022/10/15 12:45:36;;;;;;;34.22;20.35;;;14.30;99.90;;;;;;6118157;29;20555;-67
2022/10/15 12:48:46;;;;;;;29.48;18.33;;;14.30;99.90;;;;;;6118424;29;20303;-68
2022/10/15 12:51:50;;;;;;;25.15;17.75;;;14.30;99.90;;;;;;6118710;29;20271;-67
2022/10/15 12:55:22;;;;;;;27.38;17.38;;;14.30;99.90;;;;;;6118198;29;20291;-67
2022/10/15 12:58:34;;;;;;;22.50;16.65;;;14.20;99.90;;;;;;6117969;29;20300;-67
2022/10/15 13:01:53;;;;;;;27.77;17.00;;;14.10;99.90;;;;;;6118099;29;20291;-67
2022/10/15 13:04:58;;;;;;;24.58;15.98;;;14.20;99.90;;;;;;6115765;29;20312;-67
2022/10/15 13:08:12;;;;;;;22.60;16.90;;;14.10;99.90;;;;;;6117379;29;20363;-66
2022/10/15 13:11:24;;;;;;;24.00;16.77;;;14.10;99.90;;;;;;6131077;29;20271;-66
2022/10/15 13:14:34;;;;;;;31.33;18.17;;;14.10;99.90;;;;;;6141313;29;20307;-66
2022/10/15 13:17:40;;;;;;;23.27;16.48;;;14.10;99.90;;;;;;6141031;29;20477;-66
2022/10/15 13:20:49;;;;;;;25.73;17.60;;;14.10;99.90;;;;;;6141363;29;20291;-67
2022/10/15 13:23:54;;;;;;;25.05;18.08;;;14.10;99.90;;;;;;6140734;29;20579;-67
2022/10/15 13:27:01;;;;;;;27.50;17.50;;;14.10;99.90;;;;;;6141458;29;20279;-67
2022/10/15 13:30:12;;;;;;;26.40;17.20;;;14.00;99.90;;;;;;6140505;29;20352;-67
2022/10/15 13:33:17;;;;;;;24.25;16.13;;;14.00;99.90;;;;;;6140193;29;20302;-67
2022/10/15 13:36:24;;;;;;;26.58;17.55;;;14.00;99.90;;;;;;6140664;29;20483;-67
2022/10/15 13:39:33;;;;;;;24.65;16.65;;;14.00;99.90;;;;;;6140560;29;20598;-66
2022/10/15 13:42:59;;;;;;;27.23;17.92;;;14.00;99.90;;;;;;6140585;29;20611;-67
2022/10/15 13:46:03;;;;;;;23.65;16.55;;;14.00;99.90;;;;;;6141078;29;20267;-66
2022/10/15 13:49:12;;;;;;;24.20;17.05;;;14.00;99.90;;;;;;6139408;29;20473;-66
2022/10/15 13:52:17;;;;;;;26.58;16.80;;;14.00;99.90;;;;;;6140392;29;20291;-67
2022/10/15 13:55:27;;;;;;;26.63;17.00;;;14.00;99.90;;;;;;6140432;29;20271;-67
2022/10/15 13:58:35;;;;;;;22.83;16.23;;;14.00;99.90;;;;;;6139969;29;20302;-67
2022/10/15 14:01:46;;;;;;;22.58;16.33;;;14.00;99.90;;;;;;6140549;29;20295;-67
2022/10/15 14:04:51;;;;;;;25.83;16.52;;;14.00;99.90;;;;;;6140086;29;20291;-67
2022/10/15 14:07:56;;;;;;;27.23;17.08;;;14.00;99.90;;;;;;6140130;29;20299;-67
2022/10/15 14:11:01;;;;;;;31.80;17.80;;;14.00;99.90;;;;;;6129299;29;20452;-68
2022/10/15 14:14:30;;;;;;;29.90;18.10;;;14.00;99.90;;;;;;6116490;29;20300;-68
2022/10/15 14:17:35;;;;;;;23.15;17.48;;;14.00;99.90;;;;;;6116566;29;20291;-67
2022/10/15 14:20:44;;;;;;;32.95;19.58;;;14.00;99.90;;;;;;6116560;29;20276;-67
2022/10/15 14:23:50;;;;;;;29.55;18.77;;;14.10;99.90;;;;;;6116204;29;20295;-67
2022/10/15 14:26:55;;;;;;;30.02;19.33;;;14.10;99.90;;;;;;6116123;29;20351;-68
2022/10/15 14:30:01;;;;;;;34.25;21.02;;;14.10;99.90;;;;;;6116354;29;20304;-67
2022/10/15 14:33:33;;;;;;;30.95;19.65;;;14.10;99.90;;;;;;6116403;29;20303;-67
2022/10/15 14:36:42;;;;;;;36.85;20.13;;;14.20;99.90;;;;;;6116255;29;20291;-67
2022/10/15 14:39:48;;;;;;;32.13;19.65;;;14.10;99.90;;;;;;6115666;29;20303;-67
2022/10/15 14:43:05;;;;;;;34.05;20.98;;;14.10;99.90;;;;;;6115709;29;20483;-66
2022/10/15 14:46:17;;;;;;;35.08;20.60;;;14.10;99.90;;;;;;6116135;29;20292;-66
2022/10/15 14:49:27;;;;;;;35.72;21.98;;;14.20;99.90;;;;;;6116050;29;20395;-66
2022/10/15 14:52:33;;;;;;;33.00;21.02;;;14.20;99.90;;;;;;6115808;29;20308;-67
2022/10/15 14:55:43;;;;;;;35.92;21.77;;;14.20;99.90;;;;;;6116419;29;20267;-67
2022/10/15 14:58:51;;;;;;;36.55;21.40;;;14.10;99.90;;;;;;6115880;29;20312;-67
2022/10/15 15:02:00;;;;;;;34.95;20.08;;;14.10;99.90;;;;;;6121127;29;20295;-67
2022/10/15 15:05:18;;;;;;;40.67;22.38;;;14.20;99.90;;;;;;6120232;29;20304;-67
2022/10/15 15:08:24;;;;;;;35.45;21.63;;;14.10;99.90;;;;;;6120335;29;20299;-67
2022/10/15 15:11:29;;;;;;;36.55;21.17;;;14.10;99.90;;;;;;6135250;29;20267;-67
2022/10/15 15:14:34;;;;;;;37.22;20.77;;;14.20;99.90;;;;;;6143815;29;20318;-67
2022/10/15 15:17:41;;;;;;;33.08;20.65;;;14.20;99.90;;;;;;6143603;29;20290;-66
2022/10/15 15:20:47;;;;;;;40.15;21.25;;;14.20;99.90;;;;;;6136616;29;20271;-66
2022/10/15 15:23:52;;;;;;;36.22;21.55;;;14.20;99.90;;;;;;6143783;29;20299;-66
2022/10/15 15:26:56;;;;;;;38.05;22.50;;;14.20;99.90;;;;;;6127175;29;20454;-66
2022/10/15 15:30:01;;;;;;;40.40;22.45;;;14.20;99.90;;;;;;6143426;29;20622;-66
2022/10/15 15:33:12;;;;;;;34.80;21.25;;;14.20;99.90;;;;;;6143142;29;20598;-66
2022/10/15 15:36:18;;;;;;;40.08;21.40;;;14.30;99.90;;;;;;6143575;29;20275;-66
2022/10/15 15:39:27;;;;;;;40.05;21.73;;;14.30;99.90;;;;;;6143138;29;20298;-66
2022/10/15 15:42:32;;;;;;;39.38;21.80;;;14.20;99.90;;;;;;6143147;29;20311;-68
2022/10/15 15:45:37;;;;;;;40.42;21.90;;;14.20;99.90;;;;;;6143202;29;20439;-66
2022/10/15 15:48:43;;;;;;;41.88;21.55;;;14.20;99.90;;;;;;6143235;29;20303;-67
2022/10/15 15:51:48;;;;;;;40.75;22.23;;;14.30;99.90;;;;;;6143560;29;20280;-67
2022/10/15 15:54:53;;;;;;;39.40;22.45;;;14.30;99.90;;;;;;6142977;29;20322;-67
2022/10/15 15:57:58;;;;;;;36.42;21.20;;;14.30;99.90;;;;;;6142499;29;20296;-67
2022/10/15 16:01:03;;;;;;;39.35;22.77;;;14.30;99.90;;;;;;6130042;29;20294;-67
2022/10/15 16:04:09;;;;;;;35.25;21.55;;;14.20;99.90;;;;;;6126143;29;20298;-67
2022/10/15 16:07:14;;;;;;;40.67;21.52;;;14.30;99.90;;;;;;6142599;29;20323;-67
2022/10/15 16:10:24;;;;;;;41.80;22.80;;;14.30;99.90;;;;;;6124050;29;20268;-68